createdAt,value
2017-11-29T00:00:47.224Z,99.99
2017-11-29T00:01:47.792Z,99.99
2017-11-29T00:02:48.357Z,99.99
2017-11-29T00:03:48.924Z,99.99
2017-11-29T00:04:49.490Z,99.99
2017-11-29T00:05:50.058Z,99.99
2017-11-29T00:06:50.632Z,99.99
2017-11-29T00:07:51.194Z,99.99
2017-11-29T00:08:51.762Z,99.99
2017-11-29T00:09:52.329Z,99.99
2017-11-29T00:10:52.895Z,99.99
2017-11-29T00:11:53.462Z,99.99
2017-11-29T00:12:54.031Z,99.99
2017-11-29T00:13:54.600Z,99.99
2017-11-29T00:14:55.168Z,99.99
2017-11-29T00:15:55.734Z,99.99
2017-11-29T00:16:56.303Z,99.99
2017-11-29T00:17:56.867Z,99.99
2017-11-29T00:18:57.437Z,99.99
2017-11-29T00:19:58.020Z,99.99
2017-11-29T00:20:58.573Z,99.76
2017-11-29T00:21:59.141Z,99.85
2017-11-29T00:22:59.708Z,99.48
2017-11-29T00:24:00.282Z,99.57
2017-11-29T00:25:00.845Z,99.66
2017-11-29T00:26:01.415Z,99.48
2017-11-29T00:27:01.985Z,99.48
2017-11-29T00:28:02.549Z,99.38
2017-11-29T00:29:03.129Z,99.10
2017-11-29T00:30:03.696Z,99.10
2017-11-29T00:31:04.263Z,99.01
2017-11-29T00:32:04.831Z,98.53
2017-11-29T00:33:05.400Z,98.15
2017-11-29T00:34:05.980Z,98.06
2017-11-29T00:35:06.548Z,97.77
2017-11-29T00:36:07.116Z,98.06
2017-11-29T00:37:07.682Z,98.15
2017-11-29T00:38:08.249Z,97.39
2017-11-29T00:39:08.831Z,97.49
2017-11-29T00:40:09.398Z,97.49
2017-11-29T00:41:09.964Z,97.11
2017-11-29T00:42:10.532Z,97.02
2017-11-29T00:43:11.102Z,97.11
2017-11-29T00:44:11.669Z,96.83
2017-11-29T00:45:12.237Z,96.83
2017-11-29T00:46:12.804Z,97.02
2017-11-29T00:47:13.371Z,96.83
2017-11-29T00:48:13.940Z,96.64
2017-11-29T00:49:14.508Z,96.45
2017-11-29T00:50:15.076Z,96.35
2017-11-29T00:51:15.644Z,96.83
2017-11-29T00:52:16.211Z,96.64
2017-11-29T00:53:16.780Z,95.97
2017-11-29T00:54:17.349Z,95.78
2017-11-29T00:55:17.923Z,95.88
2017-11-29T00:56:18.502Z,95.88
2017-11-29T00:57:19.069Z,95.59
2017-11-29T00:58:19.636Z,95.59
2017-11-29T00:59:20.203Z,95.97
2017-11-29T01:00:20.771Z,95.59
2017-11-29T01:01:21.339Z,95.31
2017-11-29T01:02:21.907Z,95.78
2017-11-29T01:03:22.474Z,95.50
2017-11-29T01:04:23.042Z,95.50
2017-11-29T01:05:23.626Z,95.40
2017-11-29T01:06:24.178Z,94.84
2017-11-29T01:07:24.748Z,94.84
2017-11-29T01:08:25.328Z,94.84
2017-11-29T01:09:25.912Z,94.93
2017-11-29T01:10:26.481Z,94.93
2017-11-29T01:11:27.048Z,94.93
2017-11-29T01:12:27.615Z,94.74
2017-11-29T01:13:28.181Z,94.56
2017-11-29T01:14:28.749Z,94.93
2017-11-29T01:15:29.319Z,94.56
2017-11-29T01:16:29.884Z,94.56
2017-11-29T01:17:30.453Z,94.56
2017-11-29T01:18:31.019Z,94.18
2017-11-29T01:19:31.586Z,94.84
2017-11-29T01:20:32.156Z,94.08
2017-11-29T01:21:32.724Z,94.46
2017-11-29T01:22:33.291Z,94.18
2017-11-29T01:23:33.859Z,93.70
2017-11-29T01:24:34.426Z,93.70
2017-11-29T01:25:34.995Z,93.80
2017-11-29T01:26:35.562Z,93.80
2017-11-29T01:27:36.132Z,93.70
2017-11-29T01:28:36.698Z,93.51
2017-11-29T01:29:37.271Z,93.89
2017-11-29T01:30:37.833Z,93.70
2017-11-29T01:31:38.401Z,93.70
2017-11-29T01:32:38.972Z,93.70
2017-11-29T01:33:39.541Z,93.51
2017-11-29T01:34:40.105Z,93.32
2017-11-29T01:35:40.670Z,93.23
2017-11-29T01:36:41.239Z,93.32
2017-11-29T01:37:41.809Z,93.42
2017-11-29T01:38:42.376Z,92.76
2017-11-29T01:39:42.944Z,92.47
2017-11-29T01:40:43.509Z,92.76
2017-11-29T01:41:44.083Z,92.76
2017-11-29T01:42:44.646Z,92.76
2017-11-29T01:43:45.214Z,92.94
2017-11-29T01:44:45.781Z,92.85
2017-11-29T01:45:46.363Z,93.04
2017-11-29T01:46:46.929Z,93.04
2017-11-29T01:47:47.496Z,92.94
2017-11-29T01:48:48.077Z,93.04
2017-11-29T01:49:48.644Z,93.23
2017-11-29T01:50:49.211Z,93.23
2017-11-29T01:51:49.777Z,92.66
2017-11-29T01:52:50.342Z,92.66
2017-11-29T01:53:50.913Z,92.57
2017-11-29T01:54:51.479Z,92.66
2017-11-29T01:55:52.048Z,92.66
2017-11-29T01:56:52.615Z,92.66
2017-11-29T01:57:53.182Z,92.85
2017-11-29T01:58:53.749Z,92.47
2017-11-29T01:59:54.314Z,92.94
2017-11-29T02:00:54.888Z,92.85
2017-11-29T02:01:55.452Z,92.76
2017-11-29T02:02:56.019Z,92.76
2017-11-29T02:03:56.601Z,92.85
2017-11-29T02:04:57.168Z,92.94
2017-11-29T02:05:57.734Z,92.85
2017-11-29T02:06:58.301Z,92.85
2017-11-29T02:07:58.869Z,92.94
2017-11-29T02:08:59.452Z,92.76
2017-11-29T02:10:00.021Z,92.94
2017-11-29T02:11:00.588Z,92.76
2017-11-29T02:12:01.162Z,92.94
2017-11-29T02:13:01.721Z,92.85
2017-11-29T02:14:02.288Z,92.85
2017-11-29T02:15:02.855Z,92.94
2017-11-29T02:16:03.422Z,92.94
2017-11-29T02:17:03.993Z,92.94
2017-11-29T02:18:04.559Z,92.76
2017-11-29T02:19:05.127Z,92.66
2017-11-29T02:20:05.692Z,92.66
2017-11-29T02:21:06.262Z,92.85
2017-11-29T02:22:06.830Z,92.94
2017-11-29T02:23:07.398Z,92.19
2017-11-29T02:24:07.967Z,92.94
2017-11-29T02:25:08.532Z,92.38
2017-11-29T02:26:09.100Z,91.91
2017-11-29T02:27:09.670Z,91.81
2017-11-29T02:28:10.236Z,92.10
2017-11-29T02:29:10.804Z,92.85
2017-11-29T02:30:11.369Z,92.85
2017-11-29T02:31:11.936Z,92.38
2017-11-29T02:32:12.501Z,92.19
2017-11-29T02:33:13.069Z,92.10
2017-11-29T02:34:13.637Z,92.19
2017-11-29T02:35:14.205Z,91.91
2017-11-29T02:36:14.771Z,91.91
2017-11-29T02:37:15.338Z,92.19
2017-11-29T02:38:15.904Z,91.91
2017-11-29T02:39:16.474Z,92.00
2017-11-29T02:40:17.040Z,92.10
2017-11-29T02:41:17.608Z,92.29
2017-11-29T02:42:18.178Z,92.10
2017-11-29T02:43:18.741Z,92.29
2017-11-29T02:44:19.308Z,91.43
2017-11-29T02:45:19.876Z,91.72
2017-11-29T02:46:20.445Z,91.53
2017-11-29T02:47:21.013Z,91.91
2017-11-29T02:48:21.583Z,91.62
2017-11-29T02:49:22.146Z,91.81
2017-11-29T02:50:22.712Z,91.72
2017-11-29T02:51:23.279Z,91.24
2017-11-29T02:52:23.846Z,91.15
2017-11-29T02:53:24.415Z,91.62
2017-11-29T02:54:25.041Z,91.05
2017-11-29T02:55:25.550Z,90.96
2017-11-29T02:56:26.118Z,91.05
2017-11-29T02:57:26.684Z,90.67
2017-11-29T02:58:27.263Z,90.86
2017-11-29T02:59:27.828Z,90.86
2017-11-29T03:00:28.395Z,91.24
2017-11-29T03:01:28.963Z,90.77
2017-11-29T03:02:29.538Z,90.58
2017-11-29T03:03:30.113Z,90.86
2017-11-29T03:04:30.681Z,90.48
2017-11-29T03:05:31.248Z,90.20
2017-11-29T03:06:31.815Z,90.39
2017-11-29T03:07:32.383Z,90.20
2017-11-29T03:08:32.948Z,90.20
2017-11-29T03:09:33.526Z,90.20
2017-11-29T03:10:34.084Z,90.01
2017-11-29T03:11:34.651Z,90.01
2017-11-29T03:12:35.218Z,90.11
2017-11-29T03:13:35.784Z,89.82
2017-11-29T03:14:36.352Z,89.63
2017-11-29T03:15:36.918Z,89.82
2017-11-29T03:16:37.486Z,89.73
2017-11-29T03:17:38.052Z,90.11
2017-11-29T03:18:38.619Z,89.63
2017-11-29T03:19:39.186Z,89.25
2017-11-29T03:20:39.751Z,89.35
2017-11-29T03:21:40.318Z,89.25
2017-11-29T03:22:40.885Z,88.68
2017-11-29T03:23:41.453Z,88.78
2017-11-29T03:24:42.022Z,88.97
2017-11-29T03:25:42.588Z,88.59
2017-11-29T03:26:43.154Z,88.68
2017-11-29T03:27:43.720Z,88.49
2017-11-29T03:28:44.300Z,88.97
2017-11-29T03:29:44.868Z,88.49
2017-11-29T03:30:45.434Z,88.49
2017-11-29T03:31:45.999Z,88.59
2017-11-29T03:32:46.570Z,88.31
2017-11-29T03:33:47.136Z,88.31
2017-11-29T03:34:47.703Z,88.31
2017-11-29T03:35:48.269Z,88.68
2017-11-29T03:36:48.835Z,88.31
2017-11-29T03:37:49.402Z,88.02
2017-11-29T03:38:49.970Z,87.84
2017-11-29T03:39:50.537Z,87.55
2017-11-29T03:40:51.106Z,87.84
2017-11-29T03:41:51.687Z,87.74
2017-11-29T03:42:52.253Z,87.84
2017-11-29T03:43:52.821Z,87.93
2017-11-29T03:44:53.391Z,87.27
2017-11-29T03:45:53.970Z,87.36
2017-11-29T03:46:54.537Z,87.17
2017-11-29T03:47:55.103Z,87.46
2017-11-29T03:48:55.669Z,87.27
2017-11-29T03:49:56.239Z,87.17
2017-11-29T03:50:56.812Z,87.27
2017-11-29T03:51:57.374Z,87.27
2017-11-29T03:52:57.942Z,87.27
2017-11-29T03:53:58.507Z,86.32
2017-11-29T03:54:59.087Z,87.08
2017-11-29T03:55:59.655Z,87.27
2017-11-29T03:57:00.219Z,87.27
2017-11-29T03:58:00.786Z,86.89
2017-11-29T03:59:01.353Z,87.46
2017-11-29T04:00:01.923Z,86.98
2017-11-29T04:01:02.490Z,86.70
2017-11-29T04:02:03.056Z,86.70
2017-11-29T04:03:03.624Z,86.70
2017-11-29T04:04:04.192Z,86.70
2017-11-29T04:05:04.761Z,86.51
2017-11-29T04:06:05.329Z,87.08
2017-11-29T04:07:05.896Z,87.08
2017-11-29T04:08:06.463Z,86.60
2017-11-29T04:09:07.044Z,86.41
2017-11-29T04:10:07.610Z,86.60
2017-11-29T04:11:08.175Z,86.70
2017-11-29T04:12:08.741Z,86.51
2017-11-29T04:13:09.319Z,86.70
2017-11-29T04:14:09.878Z,86.60
2017-11-29T04:15:10.446Z,86.89
2017-11-29T04:16:11.013Z,86.79
2017-11-29T04:17:11.579Z,85.85
2017-11-29T04:18:12.153Z,86.04
2017-11-29T04:19:12.715Z,86.13
2017-11-29T04:20:13.284Z,86.13
2017-11-29T04:21:13.849Z,86.32
2017-11-29T04:22:14.417Z,86.13
2017-11-29T04:23:14.985Z,86.41
2017-11-29T04:24:15.551Z,85.85
2017-11-29T04:25:16.120Z,86.04
2017-11-29T04:26:16.688Z,85.94
2017-11-29T04:27:17.256Z,85.38
2017-11-29T04:28:17.821Z,85.66
2017-11-29T04:29:18.388Z,85.66
2017-11-29T04:30:18.956Z,85.57
2017-11-29T04:31:19.526Z,85.47
2017-11-29T04:32:20.092Z,85.66
2017-11-29T04:33:20.671Z,85.66
2017-11-29T04:34:21.238Z,85.28
2017-11-29T04:35:21.808Z,85.28
2017-11-29T04:36:22.374Z,85.38
2017-11-29T04:37:22.954Z,85.28
2017-11-29T04:38:23.534Z,85.19
2017-11-29T04:39:24.105Z,85.28
2017-11-29T04:40:24.672Z,85.28
2017-11-29T04:41:25.247Z,85.28
2017-11-29T04:42:25.805Z,85.38
2017-11-29T04:43:26.372Z,85.09
2017-11-29T04:44:26.941Z,85.38
2017-11-29T04:45:27.508Z,85.28
2017-11-29T04:46:28.075Z,85.47
2017-11-29T04:47:28.642Z,85.57
2017-11-29T04:48:29.210Z,85.66
2017-11-29T04:49:29.786Z,85.47
2017-11-29T04:50:30.345Z,85.57
2017-11-29T04:51:30.916Z,85.66
2017-11-29T04:52:31.482Z,85.57
2017-11-29T04:53:32.049Z,86.13
2017-11-29T04:54:32.615Z,85.75
2017-11-29T04:55:33.184Z,85.94
2017-11-29T04:56:33.753Z,85.85
2017-11-29T04:57:34.317Z,86.13
2017-11-29T04:58:34.886Z,86.13
2017-11-29T04:59:35.451Z,86.13
2017-11-29T05:00:36.017Z,86.13
2017-11-29T05:01:36.584Z,85.94
2017-11-29T05:02:37.158Z,85.94
2017-11-29T05:03:37.728Z,86.79
2017-11-29T05:04:38.287Z,86.79
2017-11-29T05:05:38.868Z,86.70
2017-11-29T05:06:39.438Z,86.32
2017-11-29T05:07:40.005Z,86.79
2017-11-29T05:08:40.589Z,86.51
2017-11-29T05:09:41.152Z,86.70
2017-11-29T05:10:41.717Z,86.70
2017-11-29T05:11:42.283Z,87.08
2017-11-29T05:12:42.850Z,86.32
2017-11-29T05:13:43.415Z,87.17
2017-11-29T05:14:43.985Z,87.27
2017-11-29T05:15:44.552Z,87.27
2017-11-29T05:16:45.120Z,87.55
2017-11-29T05:17:45.685Z,87.27
2017-11-29T05:18:46.252Z,87.36
2017-11-29T05:19:46.819Z,87.36
2017-11-29T05:20:47.400Z,87.27
2017-11-29T05:21:47.956Z,87.17
2017-11-29T05:22:48.526Z,87.74
2017-11-29T05:23:49.089Z,87.93
2017-11-29T05:24:49.659Z,88.02
2017-11-29T05:25:50.224Z,87.55
2017-11-29T05:26:50.792Z,87.84
2017-11-29T05:27:51.359Z,87.55
2017-11-29T05:28:51.929Z,87.55
2017-11-29T05:29:52.495Z,87.46
2017-11-29T05:30:53.062Z,87.79
2017-11-29T05:31:53.634Z,87.84
2017-11-29T05:32:54.197Z,87.55
2017-11-29T05:33:54.767Z,87.55
2017-11-29T05:34:55.334Z,87.46
2017-11-29T05:35:55.914Z,87.93
2017-11-29T05:36:56.482Z,88.49
2017-11-29T05:37:57.063Z,88.07
2017-11-29T05:38:57.630Z,88.49
2017-11-29T05:39:58.205Z,88.12
2017-11-29T05:40:58.763Z,88.26
2017-11-29T05:41:59.342Z,88.45
2017-11-29T05:42:59.899Z,88.31
2017-11-29T05:44:00.465Z,88.26
2017-11-29T05:45:01.037Z,88.26
2017-11-29T05:46:01.617Z,88.45
2017-11-29T05:47:02.186Z,88.36
2017-11-29T05:48:02.753Z,88.07
2017-11-29T05:49:03.318Z,88.45
2017-11-29T05:50:03.885Z,88.93
2017-11-29T05:51:04.466Z,89.02
2017-11-29T05:52:05.036Z,88.49
2017-11-29T05:53:05.601Z,88.74
2017-11-29T05:54:06.170Z,88.49
2017-11-29T05:55:06.753Z,88.55
2017-11-29T05:56:07.321Z,88.83
2017-11-29T05:57:07.885Z,88.45
2017-11-29T05:58:08.453Z,89.06
2017-11-29T05:59:09.023Z,89.12
2017-11-29T06:00:09.586Z,88.68
2017-11-29T06:01:10.153Z,89.40
2017-11-29T06:02:10.724Z,88.78
2017-11-29T06:03:11.303Z,88.87
2017-11-29T06:04:11.872Z,89.06
2017-11-29T06:05:12.453Z,89.63
2017-11-29T06:06:13.021Z,89.73
2017-11-29T06:07:13.588Z,89.92
2017-11-29T06:08:14.170Z,89.92
2017-11-29T06:09:14.740Z,89.63
2017-11-29T06:10:15.308Z,89.92
2017-11-29T06:11:15.874Z,89.44
2017-11-29T06:12:16.443Z,89.54
2017-11-29T06:13:17.010Z,89.35
2017-11-29T06:14:17.582Z,89.54
2017-11-29T06:15:18.146Z,89.44
2017-11-29T06:16:18.733Z,89.73
2017-11-29T06:17:19.301Z,89.73
2017-11-29T06:18:19.868Z,89.63
2017-11-29T06:19:20.428Z,89.06
2017-11-29T06:20:20.995Z,89.44
2017-11-29T06:21:21.562Z,89.35
2017-11-29T06:22:22.132Z,89.44
2017-11-29T06:23:22.698Z,89.16
2017-11-29T06:24:23.265Z,89.73
2017-11-29T06:25:23.832Z,89.54
2017-11-29T06:26:24.399Z,89.73
2017-11-29T06:27:24.964Z,89.73
2017-11-29T06:28:25.533Z,89.44
2017-11-29T06:29:26.114Z,89.35
2017-11-29T06:30:26.683Z,89.82
2017-11-29T06:31:27.252Z,89.92
2017-11-29T06:32:27.820Z,89.92
2017-11-29T06:33:28.401Z,89.82
2017-11-29T06:34:28.970Z,89.35
2017-11-29T06:35:29.539Z,89.92
2017-11-29T06:36:30.106Z,89.73
2017-11-29T06:37:30.672Z,89.73
2017-11-29T06:38:31.243Z,89.54
2017-11-29T06:39:31.808Z,89.73
2017-11-29T06:40:32.389Z,89.54
2017-11-29T06:41:32.945Z,89.92
2017-11-29T06:42:33.516Z,90.11
2017-11-29T06:43:34.079Z,90.11
2017-11-29T06:44:34.646Z,89.92
2017-11-29T06:45:35.214Z,90.11
2017-11-29T06:46:35.783Z,89.35
2017-11-29T06:47:36.350Z,89.63
2017-11-29T06:48:36.917Z,89.82
2017-11-29T06:49:37.485Z,89.82
2017-11-29T06:50:38.055Z,90.01
2017-11-29T06:51:38.636Z,90.20
2017-11-29T06:52:39.206Z,90.58
2017-11-29T06:53:39.771Z,90.39
2017-11-29T06:54:40.352Z,90.39
2017-11-29T06:55:40.920Z,90.86
2017-11-29T06:56:41.488Z,90.67
2017-11-29T06:57:42.056Z,90.39
2017-11-29T06:58:42.622Z,90.67
2017-11-29T06:59:43.188Z,90.39
2017-11-29T07:00:43.755Z,90.77
2017-11-29T07:01:44.322Z,90.67
2017-11-29T07:02:44.890Z,90.48
2017-11-29T07:03:45.458Z,90.58
2017-11-29T07:04:46.023Z,90.58
2017-11-29T07:05:46.591Z,90.67
2017-11-29T07:06:47.170Z,90.86
2017-11-29T07:07:47.737Z,90.86
2017-11-29T07:08:48.305Z,90.20
2017-11-29T07:09:48.872Z,90.39
2017-11-29T07:10:49.445Z,90.39
2017-11-29T07:11:50.015Z,90.20
2017-11-29T07:12:50.575Z,89.54
2017-11-29T07:13:51.144Z,90.01
2017-11-29T07:14:51.727Z,90.20
2017-11-29T07:15:52.277Z,90.30
2017-11-29T07:16:52.855Z,90.11
2017-11-29T07:17:53.412Z,90.01
2017-11-29T07:18:53.994Z,90.20
2017-11-29T07:19:54.613Z,90.30
2017-11-29T07:20:55.183Z,90.20
2017-11-29T07:21:55.749Z,90.01
2017-11-29T07:22:56.322Z,90.01
2017-11-29T07:23:56.900Z,90.01
2017-11-29T07:24:57.469Z,90.01
2017-11-29T07:25:58.053Z,90.30
2017-11-29T07:26:58.634Z,89.92
2017-11-29T07:27:59.215Z,90.20
2017-11-29T07:28:59.783Z,90.01
2017-11-29T07:30:00.354Z,89.82
2017-11-29T07:31:00.937Z,89.82
2017-11-29T07:32:01.491Z,89.73
2017-11-29T07:33:02.060Z,89.73
2017-11-29T07:34:02.629Z,90.30
2017-11-29T07:35:03.203Z,90.11
2017-11-29T07:36:03.766Z,89.73
2017-11-29T07:37:04.334Z,90.20
2017-11-29T07:38:04.902Z,90.11
2017-11-29T07:39:05.473Z,89.63
2017-11-29T07:40:06.041Z,89.82
2017-11-29T07:41:06.608Z,89.82
2017-11-29T07:42:07.174Z,89.63
2017-11-29T07:43:07.743Z,90.01
2017-11-29T07:44:08.314Z,89.35
2017-11-29T07:45:08.883Z,90.11
2017-11-29T07:46:09.450Z,89.44
2017-11-29T07:47:10.017Z,89.73
2017-11-29T07:48:10.600Z,90.01
2017-11-29T07:49:11.166Z,90.11
2017-11-29T07:50:11.735Z,90.01
2017-11-29T07:51:12.305Z,90.20
2017-11-29T07:52:12.879Z,89.82
2017-11-29T07:53:13.448Z,89.44
2017-11-29T07:54:14.008Z,90.01
2017-11-29T07:55:14.576Z,89.82
2017-11-29T07:56:15.145Z,89.92
2017-11-29T07:57:15.714Z,89.82
2017-11-29T07:58:16.281Z,90.39
2017-11-29T07:59:16.848Z,89.82
2017-11-29T08:00:17.417Z,90.30
2017-11-29T08:01:18.006Z,90.16
2017-11-29T08:02:18.573Z,90.39
2017-11-29T08:03:19.142Z,90.30
2017-11-29T08:04:19.709Z,90.01
2017-11-29T08:05:20.278Z,90.01
2017-11-29T08:06:20.847Z,89.82
2017-11-29T08:07:21.415Z,89.92
2017-11-29T08:08:21.983Z,89.82
2017-11-29T08:09:22.552Z,89.73
2017-11-29T08:10:23.120Z,90.39
2017-11-29T08:11:23.688Z,90.20
2017-11-29T08:12:24.256Z,90.48
2017-11-29T08:13:24.826Z,90.58
2017-11-29T08:14:25.393Z,90.77
2017-11-29T08:15:25.965Z,90.86
2017-11-29T08:16:26.535Z,91.24
2017-11-29T08:17:27.116Z,91.05
2017-11-29T08:18:27.687Z,91.05
2017-11-29T08:19:28.255Z,91.43
2017-11-29T08:20:28.826Z,91.43
2017-11-29T08:21:29.394Z,91.24
2017-11-29T08:22:29.968Z,92.00
2017-11-29T08:23:30.546Z,92.10
2017-11-29T08:24:31.114Z,92.00
2017-11-29T08:25:31.685Z,91.81
2017-11-29T08:26:32.254Z,92.76
2017-11-29T08:27:32.824Z,92.66
2017-11-29T08:28:33.392Z,92.29
2017-11-29T08:29:33.968Z,92.47
2017-11-29T08:30:34.531Z,92.76
2017-11-29T08:31:35.101Z,92.76
2017-11-29T08:32:35.669Z,93.80
2017-11-29T08:33:36.238Z,93.32
2017-11-29T08:34:36.811Z,94.18
2017-11-29T08:35:37.391Z,94.08
2017-11-29T08:36:37.959Z,93.89
2017-11-29T08:37:38.529Z,94.65
2017-11-29T08:38:39.110Z,94.56
2017-11-29T08:39:39.679Z,94.93
2017-11-29T08:40:40.249Z,95.21
2017-11-29T08:41:40.820Z,95.69
2017-11-29T08:42:41.387Z,95.97
2017-11-29T08:43:41.957Z,96.73
2017-11-29T08:44:42.538Z,97.11
2017-11-29T08:45:43.106Z,97.02
2017-11-29T08:46:43.677Z,97.77
2017-11-29T08:47:44.252Z,97.77
2017-11-29T08:48:44.818Z,98.63
2017-11-29T08:49:45.401Z,98.44
2017-11-29T08:50:45.985Z,99.01
2017-11-29T08:51:46.553Z,99.66
2017-11-29T08:52:47.124Z,99.99
2017-11-29T08:53:47.692Z,99.99
2017-11-29T08:54:48.263Z,99.99
2017-11-29T08:55:48.831Z,99.99
2017-11-29T08:56:49.403Z,99.99
2017-11-29T08:57:49.975Z,99.99
2017-11-29T08:58:50.560Z,99.99
2017-11-29T08:59:51.132Z,99.99
2017-11-29T09:00:51.697Z,99.99
2017-11-29T09:01:52.268Z,99.99
2017-11-29T09:02:52.836Z,99.99
2017-11-29T09:03:53.406Z,99.99
2017-11-29T09:04:53.976Z,99.99
2017-11-29T09:05:54.548Z,99.99
2017-11-29T09:06:55.161Z,99.99
2017-11-29T09:07:55.764Z,99.99
2017-11-29T09:08:56.339Z,99.99
2017-11-29T09:09:56.909Z,99.99
2017-11-29T09:10:57.477Z,99.99
2017-11-29T09:11:58.088Z,99.99
2017-11-29T09:12:59.086Z,99.99
2017-11-29T09:13:59.657Z,99.99
2017-11-29T09:15:00.228Z,99.99
2017-11-29T09:16:00.855Z,99.99
2017-11-29T09:17:01.424Z,99.99
2017-11-29T09:18:01.994Z,99.99
2017-11-29T09:19:02.575Z,99.99
2017-11-29T09:20:03.173Z,99.99
2017-11-29T09:21:03.953Z,99.99
2017-11-29T09:22:04.523Z,99.99
2017-11-29T09:23:05.156Z,99.99
2017-11-29T09:24:05.727Z,99.99
2017-11-29T09:25:06.321Z,99.99
2017-11-29T09:26:06.892Z,99.99
2017-11-29T09:27:07.465Z,99.99
2017-11-29T09:28:08.075Z,99.99
2017-11-29T09:29:08.646Z,99.99
2017-11-29T09:30:09.229Z,99.99
2017-11-29T09:31:09.802Z,99.99
2017-11-29T09:32:10.370Z,99.99
2017-11-29T09:33:10.943Z,99.99
2017-11-29T09:34:11.546Z,99.99
2017-11-29T09:35:12.115Z,99.99
2017-11-29T09:36:12.687Z,99.99
2017-11-29T09:37:13.282Z,99.99
2017-11-29T09:38:13.852Z,99.99
2017-11-29T09:39:14.434Z,99.99
2017-11-29T09:40:15.008Z,99.99
2017-11-29T09:41:15.581Z,99.99
2017-11-29T09:42:16.148Z,99.99
2017-11-29T09:43:16.719Z,99.99
2017-11-29T09:44:17.290Z,99.99
2017-11-29T09:45:17.859Z,99.99
2017-11-29T09:46:18.440Z,99.99
2017-11-29T09:48:34.483Z,99.99
2017-11-29T09:49:35.052Z,99.99
2017-11-29T09:50:35.623Z,99.99
2017-11-29T09:51:36.210Z,99.99
2017-11-29T09:52:36.781Z,99.99
2017-11-29T09:53:37.350Z,99.99
2017-11-29T09:54:37.919Z,99.99
2017-11-29T09:55:38.489Z,99.99
2017-11-29T09:56:39.058Z,99.99
2017-11-29T09:57:39.626Z,99.99
2017-11-29T09:58:40.254Z,99.99
2017-11-29T09:59:40.863Z,99.99
2017-11-29T10:00:41.430Z,99.99
2017-11-29T10:02:57.486Z,99.99
2017-11-29T10:03:58.054Z,99.99
2017-11-29T10:04:58.625Z,99.99
2017-11-29T10:05:59.196Z,99.99
2017-11-29T10:06:59.766Z,99.99
2017-11-29T10:08:00.377Z,99.99
2017-11-29T10:09:00.941Z,99.99
2017-11-29T10:10:01.511Z,99.99
2017-11-29T10:11:02.083Z,99.99
2017-11-29T10:12:02.649Z,99.99
2017-11-29T10:13:03.233Z,99.99
2017-11-29T10:14:03.802Z,99.99
2017-11-29T10:15:04.371Z,99.99
2017-11-29T10:16:04.945Z,99.99
2017-11-29T10:17:05.524Z,99.99
2017-11-29T10:18:06.096Z,99.99
2017-11-29T10:19:06.668Z,99.99
2017-11-29T10:20:07.234Z,99.99
2017-11-29T10:21:07.810Z,99.99
2017-11-29T10:22:08.373Z,99.99
2017-11-29T10:23:08.943Z,99.99
2017-11-29T10:24:09.513Z,99.99
2017-11-29T10:25:10.082Z,99.99
2017-11-29T10:26:10.655Z,99.99
2017-11-29T10:27:11.225Z,99.99
2017-11-29T10:28:11.796Z,99.99
2017-11-29T10:29:12.379Z,99.99
2017-11-29T10:30:12.951Z,99.99
2017-11-29T10:31:13.519Z,99.99
2017-11-29T10:32:14.090Z,99.99
2017-11-29T10:33:14.662Z,99.99
2017-11-29T10:34:59.487Z,99.99
2017-11-29T10:36:00.058Z,99.99
2017-11-29T10:37:00.628Z,99.99
2017-11-29T10:38:01.197Z,99.99
2017-11-29T10:39:01.767Z,99.99
2017-11-29T10:40:02.338Z,99.99
2017-11-29T10:41:02.923Z,99.99
2017-11-29T10:42:03.492Z,99.99
2017-11-29T10:43:04.060Z,99.99
2017-11-29T10:44:04.629Z,99.99
2017-11-29T10:45:05.199Z,99.99
2017-11-29T10:46:05.770Z,99.99
2017-11-29T10:47:06.343Z,99.99
2017-11-29T10:48:06.921Z,99.99
2017-11-29T10:49:07.504Z,99.99
2017-11-29T10:50:08.074Z,99.99
2017-11-29T10:51:08.642Z,99.99
2017-11-29T10:52:09.212Z,99.99
2017-11-29T10:53:09.783Z,99.99
2017-11-29T10:54:10.353Z,99.99
2017-11-29T10:55:10.922Z,99.99
2017-11-29T10:56:11.493Z,99.99
2017-11-29T10:57:12.063Z,99.99
2017-11-29T10:58:12.632Z,99.99
2017-11-29T10:59:13.204Z,99.99
2017-11-29T11:00:13.774Z,99.99
2017-11-29T11:01:14.357Z,99.99
2017-11-29T11:02:14.943Z,99.99
2017-11-29T11:03:15.497Z,99.99
2017-11-29T11:04:16.068Z,99.99
2017-11-29T11:05:16.652Z,99.99
2017-11-29T11:06:17.223Z,99.99
2017-11-29T11:07:17.798Z,99.99
2017-11-29T11:08:18.362Z,99.99
2017-11-29T11:09:18.933Z,99.99
2017-11-29T11:10:19.503Z,99.99
2017-11-29T11:11:20.071Z,99.99
2017-11-29T11:12:20.642Z,99.99
2017-11-29T11:13:21.211Z,99.99
2017-11-29T11:14:21.784Z,99.99
2017-11-29T11:15:22.368Z,99.99
2017-11-29T11:16:22.924Z,99.99
2017-11-29T11:17:23.496Z,99.99
2017-11-29T11:18:24.069Z,99.99
2017-11-29T11:19:24.641Z,99.99
2017-11-29T11:20:25.204Z,99.99
2017-11-29T11:21:25.773Z,99.99
2017-11-29T11:22:26.345Z,99.99
2017-11-29T11:23:26.914Z,99.99
2017-11-29T11:24:27.486Z,99.99
2017-11-29T11:25:28.058Z,99.99
2017-11-29T11:26:28.632Z,99.99
2017-11-29T11:27:29.197Z,99.99
2017-11-29T11:28:29.770Z,99.99
2017-11-29T11:29:30.338Z,99.99
2017-11-29T11:30:30.908Z,99.99
2017-11-29T11:31:31.478Z,99.99
2017-11-29T11:32:32.049Z,99.99
2017-11-29T11:33:32.620Z,99.99
2017-11-29T11:34:33.192Z,99.99
2017-11-29T11:35:33.766Z,99.99
2017-11-29T11:36:34.347Z,99.99
2017-11-29T11:37:34.920Z,99.99
2017-11-29T11:38:35.489Z,99.99
2017-11-29T11:39:36.058Z,99.99
2017-11-29T11:40:36.630Z,99.99
2017-11-29T11:41:37.200Z,99.99
2017-11-29T11:42:37.770Z,99.99
2017-11-29T11:43:38.340Z,99.99
2017-11-29T11:44:38.910Z,99.99
2017-11-29T11:45:39.495Z,99.99
2017-11-29T11:46:40.083Z,99.99
2017-11-29T11:47:40.664Z,99.99
2017-11-29T11:48:41.247Z,99.99
2017-11-29T11:49:41.821Z,99.99
2017-11-29T11:50:42.389Z,99.99
2017-11-29T11:51:42.958Z,99.99
2017-11-29T11:52:43.528Z,99.99
2017-11-29T11:53:44.113Z,99.99
2017-11-29T11:54:44.682Z,99.99
2017-11-29T11:55:45.252Z,99.99
2017-11-29T11:56:45.821Z,99.99
2017-11-29T11:57:46.405Z,99.99
2017-11-29T11:58:46.989Z,99.99
2017-11-29T11:59:47.561Z,99.99
2017-11-29T12:00:48.128Z,99.99
2017-11-29T12:01:48.697Z,99.99
2017-11-29T12:02:49.269Z,99.99
2017-11-29T12:03:49.839Z,99.99
2017-11-29T12:04:50.408Z,99.99
2017-11-29T12:05:50.980Z,99.99
2017-11-29T12:06:51.550Z,99.99
2017-11-29T12:07:52.120Z,99.99
2017-11-29T12:08:52.688Z,99.99
2017-11-29T12:09:53.260Z,99.99
2017-11-29T12:10:53.832Z,99.99
2017-11-29T12:11:54.402Z,99.99
2017-11-29T12:12:54.973Z,99.99
2017-11-29T12:13:55.545Z,99.99
2017-11-29T12:14:56.114Z,99.99
2017-11-29T12:15:56.682Z,99.99
2017-11-29T12:16:57.253Z,99.99
2017-11-29T12:17:57.823Z,99.99
2017-11-29T12:18:58.409Z,99.99
2017-11-29T12:19:58.978Z,99.99
2017-11-29T12:20:59.549Z,99.99
2017-11-29T12:22:00.120Z,99.99
2017-11-29T12:23:00.696Z,99.99
2017-11-29T12:24:01.261Z,99.99
2017-11-29T12:25:01.831Z,99.99
2017-11-29T12:26:02.402Z,99.99
2017-11-29T12:27:02.971Z,99.99
2017-11-29T12:28:03.539Z,99.99
2017-11-29T12:29:04.109Z,99.99
2017-11-29T12:30:04.678Z,99.99
2017-11-29T12:31:05.262Z,99.99
2017-11-29T12:32:05.843Z,99.99
2017-11-29T12:33:06.428Z,99.99
2017-11-29T12:34:06.990Z,99.99
2017-11-29T12:35:07.565Z,99.99
2017-11-29T12:36:08.133Z,99.99
2017-11-29T12:37:08.701Z,99.99
2017-11-29T12:38:09.272Z,99.99
2017-11-29T12:39:09.841Z,99.99
2017-11-29T12:40:10.413Z,99.99
2017-11-29T12:41:10.985Z,99.99
2017-11-29T12:42:11.554Z,99.99
2017-11-29T12:43:12.123Z,99.99
2017-11-29T12:44:12.734Z,99.99
2017-11-29T12:45:13.329Z,99.99
2017-11-29T12:46:13.898Z,99.99
2017-11-29T12:47:14.486Z,99.99
2017-11-29T12:48:15.039Z,99.99
2017-11-29T12:49:15.647Z,99.99
2017-11-29T12:50:16.219Z,99.99
2017-11-29T12:51:16.786Z,99.99
2017-11-29T12:52:17.358Z,99.99
2017-11-29T12:53:17.940Z,99.99
2017-11-29T12:54:18.513Z,99.99
2017-11-29T12:55:19.086Z,99.99
2017-11-29T12:56:19.697Z,99.99
2017-11-29T12:57:20.275Z,99.99
2017-11-29T12:58:20.852Z,99.99
2017-11-29T12:59:21.416Z,99.99
2017-11-29T13:00:22.215Z,99.99
2017-11-29T13:01:22.789Z,99.99
2017-11-29T13:02:23.359Z,99.99
2017-11-29T13:03:23.928Z,99.99